Time;durP1;ratioP1;P1;durP2;ratioP2;P2;SDS_P1;SDS_P2;PMS_P1;PMS_P2;Temp;Humidity;BMP_temperature;BMP_pressure;BME280_temperature;BME280_humidity;BME280_pressure;Samples;Min_cycle;Max_cycle;Signal;HPM_P1;HPM_P2
2022/05/11 00:01:52;;;;;;;8.20;3.30;;;;;;;;;;5093546;28;20051;-66
2022/05/11 00:04:18;;;;;;;7.13;3.15;;;;;;;;;;5093438;28;20557;-66
2022/05/11 00:06:44;;;;;;;7.68;3.17;;;;;;;;;;5092201;28;20044;-66
2022/05/11 00:09:12;;;;;;;4.78;3.05;;;;;;;;;;5092287;28;20102;-66
2022/05/11 00:11:38;;;;;;;6.47;3.33;;;;;;;;;;5093741;28;20082;-66
2022/05/11 00:14:05;;;;;;;5.43;2.85;;;;;;;;;;5093479;28;20040;-66
2022/05/11 00:16:31;;;;;;;6.80;3.20;;;;;;;;;;5092102;28;20048;-66
2022/05/11 00:18:57;;;;;;;7.53;2.80;;;;;;;;;;5093419;28;20062;-66
2022/05/11 00:21:23;;;;;;;5.35;2.92;;;;;;;;;;5093226;28;20044;-66
2022/05/11 00:23:51;;;;;;;8.38;3.65;;;;;;;;;;5092030;28;20044;-66
2022/05/11 00:26:17;;;;;;;9.00;3.50;;;;;;;;;;5092493;28;20048;-66
2022/05/11 00:28:43;;;;;;;5.63;3.25;;;;;;;;;;5093009;28;20132;-66
2022/05/11 00:31:09;;;;;;;4.72;3.25;;;;;;;;;;5108501;28;20052;-65
2022/05/11 00:33:35;;;;;;;6.13;3.05;;;;;;;;;;5093138;28;20403;-66
2022/05/11 00:36:01;;;;;;;3.58;3.00;;;;;;;;;;5093167;28;20036;-67
2022/05/11 00:38:28;;;;;;;4.22;2.90;;;;;;;;;;5093279;28;20068;-66
2022/05/11 00:40:56;;;;;;;7.13;3.40;;;;;;;;;;5091467;28;20119;-66
2022/05/11 00:43:29;;;;;;;9.70;4.40;;;;;;;;;;5092951;28;20056;-66
2022/05/11 00:46:03;;;;;;;6.25;3.25;;;;;;;;;;5091782;28;20036;-66
2022/05/11 00:51:14;;;;;;;6.70;3.60;;;;;;;;;;5091706;28;20487;-66
2022/05/11 00:53:43;;;;;;;7.18;3.47;;;;;;;;;;5092556;28;20090;-66
2022/05/11 00:56:09;;;;;;;5.93;3.30;;;;;;;;;;5091349;28;20077;-66
2022/05/11 00:58:41;;;;;;;6.00;3.40;;;;;;;;;;5108346;28;20048;-65
2022/05/11 01:01:07;;;;;;;11.32;3.67;;;;;;;;;;5092791;28;20048;-66
2022/05/11 01:03:35;;;;;;;5.35;3.10;;;;;;;;;;5093370;28;20490;-66
2022/05/11 01:06:01;;;;;;;5.30;3.50;;;;;;;;;;5097089;28;20058;-66
2022/05/11 01:08:28;;;;;;;8.25;3.47;;;;;;;;;;5112437;28;20048;-66
2022/05/11 01:10:55;;;;;;;6.70;3.72;;;;;;;;;;5095462;28;20043;-66
2022/05/11 01:13:21;;;;;;;6.80;3.85;;;;;;;;;;5096905;28;20082;-66
2022/05/11 01:15:49;;;;;;;8.40;4.05;;;;;;;;;;5095549;28;20101;-66
2022/05/11 01:18:15;;;;;;;5.80;3.55;;;;;;;;;;5096793;28;20127;-66
2022/05/11 01:20:41;;;;;;;5.75;4.00;;;;;;;;;;5096562;28;20430;-66
2022/05/11 01:23:07;;;;;;;5.75;3.72;;;;;;;;;;5096575;28;20114;-66
2022/05/11 01:25:33;;;;;;;7.70;3.65;;;;;;;;;;5095176;28;20123;-66
2022/05/11 01:28:04;;;;;;;6.18;3.92;;;;;;;;;;5096609;28;20441;-66
2022/05/11 01:30:31;;;;;;;8.68;4.25;;;;;;;;;;5094919;28;20063;-66
2022/05/11 01:32:57;;;;;;;7.78;3.55;;;;;;;;;;5094930;28;20411;-66
2022/05/11 01:35:28;;;;;;;8.43;4.30;;;;;;;;;;5096226;28;20067;-66
2022/05/11 01:38:14;;;;;;;12.90;4.43;;;;;;;;;;5096132;28;20096;-66
2022/05/11 01:40:40;;;;;;;9.25;4.38;;;;;;;;;;5111861;28;20574;-66
2022/05/11 01:43:06;;;;;;;7.25;3.92;;;;;;;;;;5094860;28;20509;-66
2022/05/11 01:45:32;;;;;;;6.20;4.57;;;;;;;;;;5095205;28;20113;-66
2022/05/11 01:47:58;;;;;;;6.60;4.15;;;;;;;;;;5096098;28;20504;-66
2022/05/11 01:50:25;;;;;;;6.57;4.00;;;;;;;;;;5095882;28;20132;-66
2022/05/11 01:52:51;;;;;;;12.25;4.53;;;;;;;;;;5096033;28;20129;-66
2022/05/11 01:55:17;;;;;;;6.80;4.47;;;;;;;;;;5096209;28;20098;-66
2022/05/11 01:57:43;;;;;;;7.82;4.22;;;;;;;;;;5095841;28;20064;-66
2022/05/11 02:00:09;;;;;;;8.77;4.90;;;;;;;;;;5095845;28;20127;-66
2022/05/11 02:02:35;;;;;;;6.45;4.80;;;;;;;;;;5094698;28;20044;-66
2022/05/11 02:07:49;;;;;;;10.13;5.22;;;;;;;;;;5095502;28;20503;-66
2022/05/11 02:10:15;;;;;;;9.73;4.72;;;;;;;;;;5094494;28;20119;-66
2022/05/11 02:12:41;;;;;;;13.35;4.90;;;;;;;;;;5095540;28;20054;-66
2022/05/11 02:15:08;;;;;;;10.32;4.47;;;;;;;;;;5094027;28;20483;-67
2022/05/11 02:17:34;;;;;;;7.80;4.30;;;;;;;;;;5095787;28;20040;-66
2022/05/11 02:20:00;;;;;;;7.82;4.70;;;;;;;;;;5095314;28;20032;-66
2022/05/11 02:22:28;;;;;;;9.77;4.60;;;;;;;;;;5094039;28;20517;-66
2022/05/11 02:24:54;;;;;;;9.20;4.95;;;;;;;;;;5095525;28;20115;-66
2022/05/11 02:27:20;;;;;;;6.85;4.47;;;;;;;;;;5095487;28;20051;-66
2022/05/11 02:29:46;;;;;;;7.72;4.18;;;;;;;;;;5095225;28;20083;-66
2022/05/11 02:32:12;;;;;;;8.35;4.50;;;;;;;;;;5111250;28;20087;-66
2022/05/11 02:37:22;;;;;;;14.30;4.95;;;;;;;;;;5094001;28;20139;-66
2022/05/11 02:39:48;;;;;;;7.60;4.30;;;;;;;;;;5093775;28;20045;-66
2022/05/11 02:42:15;;;;;;;9.70;4.40;;;;;;;;;;5094892;28;20211;-65
2022/05/11 02:44:41;;;;;;;11.52;4.80;;;;;;;;;;5093695;28;20048;-65
2022/05/11 02:47:07;;;;;;;9.40;4.38;;;;;;;;;;5095128;28;20048;-66
2022/05/11 02:49:33;;;;;;;9.63;4.35;;;;;;;;;;5095031;28;20476;-66
2022/05/11 02:51:59;;;;;;;10.57;4.53;;;;;;;;;;5094975;28;20071;-65
2022/05/11 02:54:25;;;;;;;9.35;4.50;;;;;;;;;;5093730;28;20055;-65
2022/05/11 02:56:51;;;;;;;8.35;4.00;;;;;;;;;;5093659;28;20059;-65
2022/05/11 02:59:17;;;;;;;11.55;4.50;;;;;;;;;;5094867;28;20047;-65
2022/05/11 03:01:43;;;;;;;11.60;4.32;;;;;;;;;;5093251;28;20135;-65
2022/05/11 03:04:09;;;;;;;6.40;4.07;;;;;;;;;;5093251;28;20135;-65
2022/05/11 03:06:35;;;;;;;12.98;3.97;;;;;;;;;;5093468;28;20083;-64
2022/05/11 03:09:01;;;;;;;6.90;3.58;;;;;;;;;;5094500;28;20047;-65
2022/05/11 03:11:28;;;;;;;6.38;3.83;;;;;;;;;;5093335;28;20044;-65
2022/05/11 03:13:54;;;;;;;6.32;4.00;;;;;;;;;;5093038;28;20040;-66
2022/05/11 03:16:20;;;;;;;10.10;3.63;;;;;;;;;;5094278;28;20570;-65
2022/05/11 03:18:46;;;;;;;5.88;3.35;;;;;;;;;;5094428;28;20079;-65
2022/05/11 03:21:12;;;;;;;4.90;3.13;;;;;;;;;;5093470;28;20051;-66
2022/05/11 03:23:38;;;;;;;7.57;3.88;;;;;;;;;;5092901;28;20044;-65
2022/05/11 03:26:04;;;;;;;8.98;4.00;;;;;;;;;;5093625;28;20411;-66
2022/05/11 03:28:30;;;;;;;5.70;3.42;;;;;;;;;;5094231;28;20180;-66
2022/05/11 03:30:56;;;;;;;8.82;3.67;;;;;;;;;;5094050;28;20056;-65
2022/05/11 03:36:07;;;;;;;7.85;3.65;;;;;;;;;;5094013;28;20048;-66
2022/05/11 03:38:33;;;;;;;17.48;6.45;;;;;;;;;;5093904;28;20047;-65
2022/05/11 03:40:59;;;;;;;7.43;4.22;;;;;;;;;;5094089;28;20082;-66
2022/05/11 03:43:25;;;;;;;9.02;3.90;;;;;;;;;;5093989;28;20080;-66
2022/05/11 03:45:51;;;;;;;10.75;3.67;;;;;;;;;;5109449;28;20048;-65
2022/05/11 03:48:17;;;;;;;6.47;3.47;;;;;;;;;;5093997;28;20040;-66
2022/05/11 03:50:43;;;;;;;6.10;3.60;;;;;;;;;;5092481;28;20048;-66
2022/05/11 03:53:09;;;;;;;9.15;3.65;;;;;;;;;;5093730;28;20040;-65
2022/05/11 03:55:35;;;;;;;8.80;4.10;;;;;;;;;;5092335;28;20105;-66
2022/05/11 03:58:01;;;;;;;13.13;4.50;;;;;;;;;;5092201;28;20564;-65
2022/05/11 04:00:27;;;;;;;8.52;3.88;;;;;;;;;;5093587;28;20068;-66
2022/05/11 04:02:54;;;;;;;9.90;3.63;;;;;;;;;;5093135;28;20494;-65
2022/05/11 04:05:21;;;;;;;31.55;7.28;;;;;;;;;;5093067;28;20131;-65
2022/05/11 04:07:47;;;;;;;7.43;4.20;;;;;;;;;;5092346;28;20066;-65
2022/05/11 04:10:14;;;;;;;9.75;4.40;;;;;;;;;;5093512;28;20048;-66
2022/05/11 04:12:40;;;;;;;8.23;4.00;;;;;;;;;;5092090;28;20040;-65
2022/05/11 04:15:07;;;;;;;17.98;6.70;;;;;;;;;;5092207;28;20504;-65
2022/05/11 04:17:33;;;;;;;8.65;3.90;;;;;;;;;;5093154;28;20096;-65
2022/05/11 04:19:59;;;;;;;18.20;5.15;;;;;;;;;;5093237;28;20494;-65
2022/05/11 04:22:25;;;;;;;8.85;4.10;;;;;;;;;;5091833;28;20486;-66
2022/05/11 04:24:51;;;;;;;8.30;4.38;;;;;;;;;;5091618;28;20181;-66
2022/05/11 04:27:17;;;;;;;7.47;4.07;;;;;;;;;;5092016;28;20048;-65
2022/05/11 04:29:43;;;;;;;7.00;3.83;;;;;;;;;;5091817;28;20056;-65
2022/05/11 04:32:10;;;;;;;8.57;4.03;;;;;;;;;;5093007;28;20507;-65
2022/05/11 04:34:40;;;;;;;6.05;4.30;;;;;;;;;;5092836;28;20375;-65
2022/05/11 04:37:06;;;;;;;7.53;4.32;;;;;;;;;;5091442;28;20123;-66
2022/05/11 04:39:32;;;;;;;20.55;6.80;;;;;;;;;;5092733;28;20047;-65
2022/05/11 04:41:58;;;;;;;21.20;7.50;;;;;;;;;;5091662;28;20040;-66
2022/05/11 04:44:24;;;;;;;157.68;30.65;;;;;;;;;;5108535;28;20055;-66
2022/05/11 04:46:50;;;;;;;13.35;5.32;;;;;;;;;;5092672;28;20047;-64
2022/05/11 04:49:17;;;;;;;43.83;11.13;;;;;;;;;;5092977;28;20394;-65
2022/05/11 04:51:58;;;;;;;12.15;4.80;;;;;;;;;;5092875;28;20060;-65
2022/05/11 04:54:24;;;;;;;65.30;16.00;;;;;;;;;;5091397;28;20040;-66
2022/05/11 04:56:50;;;;;;;27.45;9.45;;;;;;;;;;5093074;28;20479;-66
2022/05/11 04:59:16;;;;;;;11.80;5.65;;;;;;;;;;5092363;28;20039;-66
2022/05/11 05:01:42;;;;;;;24.55;8.55;;;;;;;;;;5091298;28;20368;-65
2022/05/11 05:04:08;;;;;;;14.98;6.57;;;;;;;;;;5092096;28;20051;-66
2022/05/11 05:06:34;;;;;;;15.13;7.50;;;;;;;;;;5090791;28;20047;-66
2022/05/11 05:09:04;;;;;;;12.35;8.07;;;;;;;;;;5092321;28;20040;-65
2022/05/11 05:11:30;;;;;;;43.15;14.70;;;;;;;;;;5092373;28;20402;-66
2022/05/11 05:13:56;;;;;;;16.35;9.13;;;;;;;;;;5087609;28;20505;-66
2022/05/11 05:16:23;;;;;;;16.75;9.73;;;;;;;;;;5072246;28;20123;-66
2022/05/11 05:18:49;;;;;;;29.90;12.80;;;;;;;;;;5070985;28;20045;-66
2022/05/11 05:21:15;;;;;;;67.43;20.50;;;;;;;;;;5072198;28;20148;-66
2022/05/11 05:23:41;;;;;;;26.63;11.70;;;;;;;;;;5071073;28;20044;-65
2022/05/11 05:26:07;;;;;;;16.80;9.98;;;;;;;;;;5072284;28;20037;-65
2022/05/11 05:31:21;;;;;;;18.15;9.75;;;;;;;;;;5082136;28;20052;-66
2022/05/11 05:33:47;;;;;;;18.55;10.02;;;;;;;;;;5091047;28;20044;-66
2022/05/11 05:36:13;;;;;;;14.85;9.38;;;;;;;;;;5091311;28;20123;-66
2022/05/11 05:38:39;;;;;;;15.93;9.75;;;;;;;;;;5070623;28;20119;-66
2022/05/11 05:41:06;;;;;;;18.90;10.20;;;;;;;;;;5090925;28;20036;-66
2022/05/11 05:43:32;;;;;;;20.50;10.07;;;;;;;;;;5092030;28;20119;-66
2022/05/11 05:45:58;;;;;;;17.13;9.55;;;;;;;;;;5092135;28;20040;-66
2022/05/11 05:48:24;;;;;;;12.23;8.30;;;;;;;;;;5092133;28;20052;-66
2022/05/11 05:50:50;;;;;;;14.68;7.82;;;;;;;;;;5095800;28;20073;-66
2022/05/11 05:53:20;;;;;;;24.83;10.13;;;;;;;;;;5094295;28;20040;-66
2022/05/11 05:55:48;;;;;;;24.30;10.23;;;;;;;;;;5095615;28;20051;-66
2022/05/11 05:58:14;;;;;;;23.52;9.18;;;;;;;;;;5095782;28;20085;-66
2022/05/11 06:00:40;;;;;;;13.02;7.13;;;;;;;;;;5094355;28;20036;-67
2022/05/11 06:03:06;;;;;;;51.35;13.20;;;;;;;;;;5087854;28;20052;-66
2022/05/11 06:05:32;;;;;;;13.60;8.35;;;;;;;;;;5095683;28;20044;-66
2022/05/11 06:07:58;;;;;;;14.38;9.25;;;;;;;;;;5094412;28;20487;-66
2022/05/11 06:10:25;;;;;;;17.10;10.15;;;;;;;;;;5095713;28;20127;-66
2022/05/11 06:12:51;;;;;;;15.35;9.85;;;;;;;;;;5094374;28;20051;-66
2022/05/11 06:15:17;;;;;;;16.42;8.77;;;;;;;;;;5094501;28;20051;-66
2022/05/11 06:17:43;;;;;;;20.65;9.85;;;;;;;;;;5094405;28;20135;-66
2022/05/11 06:20:10;;;;;;;11.95;6.65;;;;;;;;;;5094189;28;20048;-66
2022/05/11 06:22:37;;;;;;;13.40;7.80;;;;;;;;;;5094013;28;20040;-67
2022/05/11 06:25:03;;;;;;;13.52;6.75;;;;;;;;;;5095363;28;20413;-66
2022/05/11 06:27:29;;;;;;;9.10;5.40;;;;;;;;;;5095577;28;20047;-67
2022/05/11 06:29:57;;;;;;;9.95;6.25;;;;;;;;;;5095265;28;20040;-67
2022/05/11 06:32:24;;;;;;;11.05;6.00;;;;;;;;;;5095387;28;20075;-67
2022/05/11 06:34:51;;;;;;;10.55;5.80;;;;;;;;;;5093871;28;20043;-66
2022/05/11 06:37:17;;;;;;;9.65;4.82;;;;;;;;;;5093778;28;20245;-66
2022/05/11 06:39:43;;;;;;;17.65;5.65;;;;;;;;;;5094923;28;20051;-67
2022/05/11 06:42:10;;;;;;;7.35;4.60;;;;;;;;;;5093485;28;20044;-66
2022/05/11 06:44:36;;;;;;;9.73;4.30;;;;;;;;;;5094764;28;20043;-66
2022/05/11 06:47:03;;;;;;;11.20;5.10;;;;;;;;;;5091939;28;20119;-66
2022/05/11 06:49:29;;;;;;;8.40;4.15;;;;;;;;;;5094620;28;20048;-66
2022/05/11 06:51:55;;;;;;;7.45;3.88;;;;;;;;;;5094472;28;20393;-66
2022/05/11 06:59:53;;;;;;;8.55;3.53;;;;;;;;;;5092735;28;20412;-66
2022/05/11 07:02:19;;;;;;;13.95;4.90;;;;;;;;;;5075694;28;20040;-66
2022/05/11 07:04:45;;;;;;;9.60;3.88;;;;;;;;;;5093561;28;20062;-66
2022/05/11 07:07:11;;;;;;;13.95;3.65;;;;;;;;;;5094502;28;20486;-66
2022/05/11 07:09:39;;;;;;;7.03;2.97;;;;;;;;;;5094573;28;20089;-66
2022/05/11 07:12:18;;;;;;;8.27;3.38;;;;;;;;;;5094479;28;20564;-66
2022/05/11 07:14:45;;;;;;;8.25;2.78;;;;;;;;;;5094598;28;20058;-66
2022/05/11 07:17:11;;;;;;;9.23;3.22;;;;;;;;;;5110202;28;20040;-66
2022/05/11 07:19:41;;;;;;;7.45;2.70;;;;;;;;;;5093809;28;20047;-66
2022/05/11 07:22:07;;;;;;;8.50;2.90;;;;;;;;;;5093983;28;20119;-66
2022/05/11 07:24:33;;;;;;;12.43;3.65;;;;;;;;;;5094139;28;20115;-66
2022/05/11 07:27:00;;;;;;;9.05;3.50;;;;;;;;;;5093858;28;20040;-66
2022/05/11 07:29:26;;;;;;;5.70;2.47;;;;;;;;;;5093700;28;20142;-66
2022/05/11 07:31:52;;;;;;;6.78;2.80;;;;;;;;;;5092581;28;20056;-66
2022/05/11 07:34:18;;;;;;;7.13;2.33;;;;;;;;;;5093824;28;20040;-66
2022/05/11 07:36:44;;;;;;;7.95;2.42;;;;;;;;;;5093840;28;20082;-66
2022/05/11 07:39:10;;;;;;;8.93;2.85;;;;;;;;;;5093841;28;20483;-66
2022/05/11 07:41:36;;;;;;;7.35;2.38;;;;;;;;;;5094447;28;20036;-64
2022/05/11 07:44:03;;;;;;;5.97;2.40;;;;;;;;;;5093835;28;20487;-64
2022/05/11 07:46:34;;;;;;;6.85;2.33;;;;;;;;;;5094032;28;20050;-65
2022/05/11 07:49:00;;;;;;;7.85;2.30;;;;;;;;;;5093937;28;20123;-65
2022/05/11 07:51:26;;;;;;;6.63;2.20;;;;;;;;;;5093803;28;20415;-65
2022/05/11 07:53:52;;;;;;;6.20;2.10;;;;;;;;;;5093434;28;20406;-65
2022/05/11 08:01:48;;;;;;;4.72;1.83;;;;;;;;;;5074112;28;20045;-65
2022/05/11 08:04:14;;;;;;;5.55;1.83;;;;;;;;;;5073850;28;20411;-65
2022/05/11 08:06:40;;;;;;;10.68;2.80;;;;;;;;;;5073849;28;20044;-65
2022/05/11 08:09:06;;;;;;;6.70;1.60;;;;;;;;;;5073813;28;20041;-66
2022/05/11 08:11:31;;;;;;;7.40;1.85;;;;;;;;;;5073440;28;20426;-65
2022/05/11 08:13:58;;;;;;;11.23;2.67;;;;;;;;;;5073597;28;20071;-65
2022/05/11 08:16:26;;;;;;;6.55;2.00;;;;;;;;;;5073628;28;20051;-65
2022/05/11 08:18:52;;;;;;;5.33;1.37;;;;;;;;;;5091269;28;20040;-65
2022/05/11 08:21:19;;;;;;;4.88;1.58;;;;;;;;;;5093229;28;20444;-65
2022/05/11 08:23:46;;;;;;;6.63;1.38;;;;;;;;;;5092042;28;20082;-66
2022/05/11 08:26:12;;;;;;;4.82;1.30;;;;;;;;;;5092362;28;20477;-66
2022/05/11 08:28:38;;;;;;;6.13;1.42;;;;;;;;;;5092462;28;20379;-65
2022/05/11 08:33:48;;;;;;;6.10;1.40;;;;;;;;;;5092944;28;20040;-65
2022/05/11 08:36:16;;;;;;;5.85;1.92;;;;;;;;;;5093100;28;20043;-65
2022/05/11 08:38:44;;;;;;;6.40;1.73;;;;;;;;;;5093096;28;20048;-65
2022/05/11 08:41:28;;;;;;;7.15;1.75;;;;;;;;;;5091620;28;20422;-65
2022/05/11 08:43:57;;;;;;;5.88;1.15;;;;;;;;;;5091696;28;20077;-66
2022/05/11 08:46:38;;;;;;;3.85;1.48;;;;;;;;;;5092753;28;20040;-66
2022/05/11 08:49:10;;;;;;;5.53;1.40;;;;;;;;;;5093196;28;20055;-65
2022/05/11 08:51:39;;;;;;;4.88;1.40;;;;;;;;;;5093691;28;20399;-66
2022/05/11 08:54:17;;;;;;;5.50;1.20;;;;;;;;;;5093202;28;20055;-65
2022/05/11 08:56:44;;;;;;;6.95;1.23;;;;;;;;;;5092261;28;20525;-65
2022/05/11 08:59:21;;;;;;;7.53;1.40;;;;;;;;;;5092238;28;20487;-66
2022/05/11 09:01:52;;;;;;;5.65;1.50;;;;;;;;;;5093563;28;20052;-65
2022/05/11 09:04:22;;;;;;;6.80;1.30;;;;;;;;;;5093076;28;20040;-65
2022/05/11 09:06:48;;;;;;;3.28;0.88;;;;;;;;;;5092663;28;20129;-66
2022/05/11 09:09:16;;;;;;;10.05;1.55;;;;;;;;;;5092663;28;20044;-66
2022/05/11 09:11:52;;;;;;;6.20;1.00;;;;;;;;;;5092146;28;20044;-66
2022/05/11 09:14:45;;;;;;;9.07;1.20;;;;;;;;;;5090732;28;20048;-65
2022/05/11 09:17:23;;;;;;;4.30;1.23;;;;;;;;;;5090186;28;20054;-66
2022/05/11 09:19:59;;;;;;;10.38;1.40;;;;;;;;;;5092754;28;20040;-66
2022/05/11 09:22:25;;;;;;;11.45;2.03;;;;;;;;;;5092277;28;20371;-66
2022/05/11 09:24:53;;;;;;;6.72;1.60;;;;;;;;;;5095162;28;20508;-66
2022/05/11 09:27:26;;;;;;;5.80;1.38;;;;;;;;;;5095340;28;20521;-66
2022/05/11 09:30:15;;;;;;;6.75;1.30;;;;;;;;;;5096506;28;20055;-66
2022/05/11 09:32:45;;;;;;;13.15;1.65;;;;;;;;;;5096228;28;20133;-67
2022/05/11 09:35:17;;;;;;;8.63;1.30;;;;;;;;;;5096334;28;20048;-66
2022/05/11 09:37:44;;;;;;;7.43;1.92;;;;;;;;;;5096616;28;20047;-66
2022/05/11 09:40:21;;;;;;;13.38;1.50;;;;;;;;;;5096356;28;20093;-66
2022/05/11 09:42:55;;;;;;;17.05;3.20;;;;;;;;;;5096186;28;20044;-64
2022/05/11 09:45:39;;;;;;;11.98;2.13;;;;;;;;;;5096680;28;20047;-65
2022/05/11 09:48:17;;;;;;;10.98;1.40;;;;;;;;;;5096743;28;20382;-66
2022/05/11 09:50:44;;;;;;;3.63;1.23;;;;;;;;;;5096817;28;20082;-66
2022/05/11 09:53:18;;;;;;;14.70;1.80;;;;;;;;;;5096779;28;20079;-66
2022/05/11 09:55:44;;;;;;;5.80;1.60;;;;;;;;;;5096517;28;20135;-65
2022/05/11 09:58:10;;;;;;;7.07;2.03;;;;;;;;;;5096732;28;20080;-66
2022/05/11 10:00:38;;;;;;;7.53;1.45;;;;;;;;;;5096455;28;20040;-66
2022/05/11 10:03:07;;;;;;;7.22;1.75;;;;;;;;;;5096695;28;20044;-66
2022/05/11 10:05:41;;;;;;;5.25;1.10;;;;;;;;;;5095952;28;20036;-67
2022/05/11 10:08:29;;;;;;;9.85;1.60;;;;;;;;;;5096229;28;20119;-67
2022/05/11 10:11:11;;;;;;;7.30;1.33;;;;;;;;;;5096354;28;20044;-64
2022/05/11 10:13:37;;;;;;;8.70;1.33;;;;;;;;;;5096153;28;20044;-66
2022/05/11 10:21:53;;;;;;;10.88;2.22;;;;;;;;;;5096233;28;20044;-66
2022/05/11 10:24:19;;;;;;;6.10;1.35;;;;;;;;;;5095837;28;20060;-66
2022/05/11 10:26:49;;;;;;;16.08;1.58;;;;;;;;;;5094647;28;20044;-66
2022/05/11 10:29:17;;;;;;;7.82;1.55;;;;;;;;;;5096254;28;20040;-65
2022/05/11 10:32:06;;;;;;;6.68;1.20;;;;;;;;;;5095427;28;20067;-66
2022/05/11 10:34:46;;;;;;;5.85;1.10;;;;;;;;;;5089566;28;20079;-66
2022/05/11 10:37:32;;;;;;;5.57;0.90;;;;;;;;;;5093920;28;20126;-65
2022/05/11 10:40:04;;;;;;;4.35;1.20;;;;;;;;;;5095804;28;20505;-66
2022/05/11 10:42:39;;;;;;;5.38;1.23;;;;;;;;;;5094381;28;20055;-66
2022/05/11 10:45:22;;;;;;;10.60;1.27;;;;;;;;;;5095489;28;20044;-67
2022/05/11 10:47:57;;;;;;;8.85;1.23;;;;;;;;;;5093834;28;20054;-65
2022/05/11 10:50:36;;;;;;;3.55;0.88;;;;;;;;;;5094859;28;20430;-66
2022/05/11 10:53:11;;;;;;;3.95;1.00;;;;;;;;;;5094971;28;20051;-66
2022/05/11 10:55:52;;;;;;;7.07;1.20;;;;;;;;;;5095383;28;20048;-65
2022/05/11 10:58:24;;;;;;;3.47;1.10;;;;;;;;;;5094895;28;20070;-66
2022/05/11 11:00:56;;;;;;;5.05;1.15;;;;;;;;;;5094804;28;20040;-66
2022/05/11 11:03:35;;;;;;;8.50;1.27;;;;;;;;;;5095119;28;20071;-67
2022/05/11 11:09:31;;;;;;;6.38;1.25;;;;;;;;;;5094762;28;20040;-66
2022/05/11 11:12:15;;;;;;;5.30;1.30;;;;;;;;;;5070658;28;20059;-66
2022/05/11 11:14:45;;;;;;;4.68;1.50;;;;;;;;;;5094942;28;20061;-66
2022/05/11 11:17:14;;;;;;;5.65;1.10;;;;;;;;;;5095187;28;20048;-66
2022/05/11 11:19:42;;;;;;;5.15;1.67;;;;;;;;;;5094714;28;20058;-66
2022/05/11 11:22:08;;;;;;;12.65;3.25;;;;;;;;;;5094268;28;20042;-66
2022/05/11 11:24:36;;;;;;;6.72;1.50;;;;;;;;;;5094454;28;20453;-68
2022/05/11 11:27:02;;;;;;;14.18;2.83;;;;;;;;;;5093925;28;20483;-67
2022/05/11 11:29:31;;;;;;;11.10;2.33;;;;;;;;;;5093486;28;20097;-67
2022/05/11 11:32:00;;;;;;;6.88;1.30;;;;;;;;;;5094111;28;20138;-66
2022/05/11 11:34:31;;;;;;;5.10;1.13;;;;;;;;;;5091060;28;20047;-67
2022/05/11 11:36:57;;;;;;;4.93;1.17;;;;;;;;;;5093634;28;20530;-67
2022/05/11 11:39:42;;;;;;;4.78;1.25;;;;;;;;;;5093699;28;20040;-67
2022/05/11 11:42:08;;;;;;;4.05;1.00;;;;;;;;;;5093193;28;20102;-66
2022/05/11 11:44:46;;;;;;;9.40;1.40;;;;;;;;;;5093512;28;20491;-67
2022/05/11 11:47:12;;;;;;;;;;;;;;;;;;5093814;28;20044;-66
2022/05/11 11:49:38;;;;;;;6.78;1.30;;;;;;;;;;5093830;28;19926;-66
2022/05/11 11:52:05;;;;;;;5.80;1.38;;;;;;;;;;5093551;28;20036;-65
2022/05/11 11:54:37;;;;;;;3.97;1.20;;;;;;;;;;5093472;28;20048;-69
2022/05/11 11:57:07;;;;;;;4.22;1.20;;;;;;;;;;5093494;28;20036;-66
2022/05/11 11:59:34;;;;;;;5.18;1.10;;;;;;;;;;5093431;28;20035;-65
2022/05/11 12:02:23;;;;;;;4.03;1.20;;;;;;;;;;5093244;28;20174;-66
2022/05/11 12:04:56;;;;;;;6.60;1.25;;;;;;;;;;5092055;28;20058;-66
2022/05/11 12:15:45;;;;;;;7.05;1.02;;;;;;;;;;5092274;28;20093;-66
2022/05/11 12:18:22;;;;;;;6.65;1.20;;;;;;;;;;5093109;28;20032;-67
2022/05/11 12:20:48;;;;;;;5.90;1.20;;;;;;;;;;5093051;28;20399;-66
2022/05/11 12:23:20;;;;;;;7.25;1.70;;;;;;;;;;5092887;28;20055;-66
2022/05/11 12:25:55;;;;;;;7.88;1.25;;;;;;;;;;5092584;28;20498;-66
2022/05/11 12:28:23;;;;;;;5.72;1.35;;;;;;;;;;5093229;28;20044;-66
2022/05/11 12:30:50;;;;;;;5.03;1.45;;;;;;;;;;5092827;28;20048;-67
2022/05/11 12:33:20;;;;;;;12.10;1.40;;;;;;;;;;5092976;28;20040;-67
2022/05/11 12:35:47;;;;;;;5.50;1.27;;;;;;;;;;5092865;28;20044;-66
2022/05/11 12:38:25;;;;;;;8.70;1.50;;;;;;;;;;5092817;28;20047;-66
2022/05/11 12:40:51;;;;;;;12.23;1.40;;;;;;;;;;5089986;28;20075;-66
2022/05/11 12:43:29;;;;;;;7.10;1.08;;;;;;;;;;5092919;28;20122;-66
2022/05/11 12:45:57;;;;;;;6.88;1.27;;;;;;;;;;5092638;28;20036;-67
2022/05/11 12:48:25;;;;;;;8.80;1.08;;;;;;;;;;5092628;28;20066;-66
2022/05/11 12:50:54;;;;;;;6.82;1.23;;;;;;;;;;5090314;28;20043;-67
2022/05/11 12:53:20;;;;;;;6.93;1.13;;;;;;;;;;5092589;28;20131;-66
2022/05/11 12:55:48;;;;;;;7.38;1.10;;;;;;;;;;5092344;28;20071;-67
2022/05/11 12:58:18;;;;;;;5.90;1.45;;;;;;;;;;5091981;28;20205;-67
2022/05/11 13:00:44;;;;;;;4.68;1.17;;;;;;;;;;5092244;28;20743;-67
2022/05/11 13:03:26;;;;;;;6.45;1.58;;;;;;;;;;5092205;28;20036;-67
2022/05/11 13:05:54;;;;;;;4.82;1.20;;;;;;;;;;5092421;28;20115;-67
2022/05/11 13:08:22;;;;;;;6.13;1.20;;;;;;;;;;5092292;28;20506;-67
2022/05/11 13:10:49;;;;;;;5.00;1.08;;;;;;;;;;5092684;28;20047;-67
2022/05/11 13:13:16;;;;;;;4.65;1.30;;;;;;;;;;5093580;28;20367;-66
2022/05/11 13:15:45;;;;;;;5.30;1.20;;;;;;;;;;5092019;28;20044;-67
2022/05/11 13:18:27;;;;;;;4.35;1.30;;;;;;;;;;5093390;28;20282;-67
2022/05/11 13:20:55;;;;;;;6.97;1.38;;;;;;;;;;5092561;28;20040;-67
2022/05/11 13:23:27;;;;;;;10.27;1.40;;;;;;;;;;5092822;28;20093;-67
2022/05/11 13:25:54;;;;;;;15.20;1.60;;;;;;;;;;5092508;28;20059;-66
2022/05/11 13:28:20;;;;;;;8.73;1.23;;;;;;;;;;5092331;28;20371;-66
2022/05/11 13:30:46;;;;;;;12.15;1.67;;;;;;;;;;5092372;28;20125;-65
2022/05/11 13:33:35;;;;;;;5.07;1.80;;;;;;;;;;5092441;28;20070;-66
2022/05/11 13:36:18;;;;;;;7.10;1.77;;;;;;;;;;5092533;28;20059;-66
2022/05/11 13:38:50;;;;;;;8.38;1.13;;;;;;;;;;5092620;28;20098;-66
2022/05/11 13:41:18;;;;;;;9.02;2.00;;;;;;;;;;5092671;28;20107;-66
2022/05/11 13:43:48;;;;;;;9.00;1.50;;;;;;;;;;5092933;28;20518;-66
2022/05/11 13:46:33;;;;;;;9.90;2.17;;;;;;;;;;5092728;28;20128;-66
2022/05/11 13:49:18;;;;;;;9.25;1.83;;;;;;;;;;5092604;28;20075;-67
2022/05/11 13:51:44;;;;;;;5.50;1.45;;;;;;;;;;5092611;28;20059;-66
2022/05/11 13:54:24;;;;;;;8.77;1.60;;;;;;;;;;5092011;28;20483;-70
2022/05/11 13:56:57;;;;;;;7.32;1.38;;;;;;;;;;5093195;28;20470;-68
2022/05/11 13:59:24;;;;;;;13.82;2.83;;;;;;;;;;5092786;28;20079;-68
2022/05/11 14:01:50;;;;;;;6.60;1.70;;;;;;;;;;5093060;28;20044;-68
2022/05/11 14:04:19;;;;;;;11.23;1.95;;;;;;;;;;5093016;28;20076;-66
2022/05/11 14:06:53;;;;;;;12.75;3.25;;;;;;;;;;5092797;28;20070;-67
2022/05/11 14:09:19;;;;;;;6.65;1.77;;;;;;;;;;5092989;28;20049;-67
2022/05/11 14:11:45;;;;;;;9.77;2.35;;;;;;;;;;5096258;28;20085;-67
2022/05/11 14:14:12;;;;;;;17.23;3.47;;;;;;;;;;5095711;28;20418;-67
2022/05/11 14:16:38;;;;;;;13.40;3.55;;;;;;;;;;5094608;28;20123;-67
2022/05/11 14:19:04;;;;;;;7.68;1.63;;;;;;;;;;5095598;28;20044;-67
2022/05/11 14:21:30;;;;;;;9.27;1.85;;;;;;;;;;5095065;28;20413;-68
2022/05/11 14:23:56;;;;;;;14.65;2.80;;;;;;;;;;5095556;28;20044;-68
2022/05/11 14:26:22;;;;;;;9.73;2.15;;;;;;;;;;5095090;28;20040;-68
2022/05/11 14:28:48;;;;;;;11.35;1.90;;;;;;;;;;5095333;28;20036;-68
2022/05/11 14:31:16;;;;;;;7.13;1.60;;;;;;;;;;5096047;28;20409;-69
2022/05/11 14:33:43;;;;;;;10.73;2.65;;;;;;;;;;5095989;28;20059;-69
2022/05/11 14:36:09;;;;;;;14.35;2.42;;;;;;;;;;5096325;28;20055;-68
2022/05/11 14:38:36;;;;;;;8.70;2.00;;;;;;;;;;5096018;28;20040;-67
2022/05/11 14:41:02;;;;;;;8.38;1.67;;;;;;;;;;5095515;28;20040;-67
2022/05/11 14:43:27;;;;;;;7.70;1.67;;;;;;;;;;5095899;28;20471;-67
2022/05/11 14:45:56;;;;;;;11.50;2.33;;;;;;;;;;5095790;28;20173;-67
2022/05/11 14:48:23;;;;;;;11.82;2.20;;;;;;;;;;5095511;28;20488;-68
2022/05/11 14:50:50;;;;;;;7.95;1.85;;;;;;;;;;5095590;28;20055;-67
2022/05/11 14:53:15;;;;;;;10.65;1.75;;;;;;;;;;5095299;28;20478;-67
2022/05/11 14:55:41;;;;;;;10.77;2.17;;;;;;;;;;5096248;28;20159;-67
2022/05/11 15:03:38;;;;;;;11.13;1.80;;;;;;;;;;5092108;28;20036;-67
2022/05/11 15:06:04;;;;;;;19.83;2.33;;;;;;;;;;5094694;28;20048;-68
2022/05/11 15:08:30;;;;;;;8.35;1.77;;;;;;;;;;5095014;28;20040;-73
2022/05/11 15:13:41;;;;;;;22.75;4.38;;;;;;;;;;5095246;28;20052;-67
2022/05/11 15:16:07;;;;;;;8.13;2.03;;;;;;;;;;5095211;28;20036;-67
2022/05/11 15:18:34;;;;;;;12.10;2.35;;;;;;;;;;5094851;28;20486;-67
2022/05/11 15:21:00;;;;;;;11.50;2.70;;;;;;;;;;5095012;28;20094;-67
2022/05/11 15:23:26;;;;;;;12.50;2.78;;;;;;;;;;5094475;28;20421;-68
2022/05/11 15:25:52;;;;;;;8.77;2.42;;;;;;;;;;5095251;28;20047;-68
2022/05/11 15:28:18;;;;;;;6.70;1.92;;;;;;;;;;5093757;28;20123;-67
2022/05/11 15:30:45;;;;;;;9.65;2.08;;;;;;;;;;5094580;28;20056;-68
2022/05/11 15:33:12;;;;;;;9.73;2.20;;;;;;;;;;5094520;28;20491;-67
2022/05/11 15:35:38;;;;;;;11.27;2.83;;;;;;;;;;5094818;28;20040;-67
2022/05/11 15:38:05;;;;;;;9.23;2.15;;;;;;;;;;5094640;28;20054;-67
2022/05/11 15:40:31;;;;;;;7.18;2.20;;;;;;;;;;5093785;28;20135;-67